Time;durP1;ratioP1;P1;durP2;ratioP2;P2;SDS_P1;SDS_P2;PMS_P1;PMS_P2;Temp;Humidity;BMP_temperature;BMP_pressure;BME280_temperature;BME280_humidity;BME280_pressure;Samples;Min_cycle;Max_cycle;Signal;HPM_P1;HPM_P2
2024/04/20 00:00:10;;;;;;;5.20;2.40;;;6.50;99.90;;;;;;5394521;26;20004;-58
2024/04/20 00:02:35;;;;;;;4.38;2.35;;;6.50;99.90;;;;;;5394883;26;20000;-58
2024/04/20 00:05:01;;;;;;;7.25;2.38;;;6.50;99.90;;;;;;5390770;26;20004;-59
2024/04/20 00:07:26;;;;;;;3.70;1.83;;;6.50;99.90;;;;;;5393127;26;20015;-59
2024/04/20 00:09:51;;;;;;;4.63;2.50;;;6.50;99.90;;;;;;5395112;26;20008;-58
2024/04/20 00:12:17;;;;;;;5.95;1.92;;;6.50;99.90;;;;;;5394689;26;20014;-58
2024/04/20 00:14:42;;;;;;;6.20;2.88;;;6.50;99.90;;;;;;5395097;26;20014;-59
2024/04/20 00:17:08;;;;;;;5.07;2.17;;;6.40;99.90;;;;;;5395027;26;20014;-58
2024/04/20 00:19:33;;;;;;;4.20;2.15;;;6.40;99.90;;;;;;5397614;26;20080;-59
2024/04/20 00:22:00;;;;;;;4.07;2.33;;;6.40;99.90;;;;;;5394427;26;20011;-59
2024/04/20 00:24:26;;;;;;;4.72;2.17;;;6.40;99.90;;;;;;5385922;26;20544;-59
2024/04/20 00:26:51;;;;;;;2.55;2.05;;;6.40;99.90;;;;;;5394597;26;20004;-59
2024/04/20 00:29:17;;;;;;;4.65;2.03;;;6.40;99.90;;;;;;5394441;26;20018;-59
2024/04/20 00:31:42;;;;;;;4.40;2.50;;;6.40;99.90;;;;;;5394932;26;20004;-59
2024/04/20 00:34:08;;;;;;;3.53;1.73;;;6.40;99.90;;;;;;5390238;26;20019;-59
2024/04/20 00:36:33;;;;;;;4.22;2.00;;;6.40;99.90;;;;;;5394672;26;20084;-59
2024/04/20 00:38:59;;;;;;;5.30;1.88;;;6.40;99.90;;;;;;5387849;26;20018;-59
2024/04/20 00:41:24;;;;;;;4.30;1.90;;;6.40;99.90;;;;;;5391317;26;20356;-59
2024/04/20 00:43:50;;;;;;;5.38;2.10;;;6.50;99.90;;;;;;5394249;26;20003;-59
2024/04/20 00:46:15;;;;;;;5.57;2.47;;;6.50;99.90;;;;;;5397093;26;20019;-59
2024/04/20 00:48:41;;;;;;;4.43;1.95;;;6.50;99.90;;;;;;5394128;26;20069;-59
2024/04/20 00:51:07;;;;;;;3.08;1.80;;;6.50;99.90;;;;;;5394251;26;21638;-59
2024/04/20 00:53:34;;;;;;;4.50;2.08;;;6.50;99.90;;;;;;5393118;26;20088;-59
2024/04/20 00:56:00;;;;;;;3.33;2.05;;;6.40;99.90;;;;;;5394489;26;20004;-59
2024/04/20 00:58:26;;;;;;;3.30;1.90;;;6.50;99.90;;;;;;5392400;26;19999;-60
2024/04/20 01:00:52;;;;;;;3.15;1.92;;;6.50;99.90;;;;;;5394207;26;20007;-59
2024/04/20 01:03:21;;;;;;;3.45;2.08;;;6.40;99.90;;;;;;5396987;26;20003;-59
2024/04/20 01:05:47;;;;;;;2.58;1.98;;;6.40;99.90;;;;;;5394374;26;20098;-59
2024/04/20 01:08:12;;;;;;;4.88;2.30;;;6.40;99.90;;;;;;5394243;26;20008;-59
2024/04/20 01:10:39;;;;;;;4.53;2.58;;;6.40;99.90;;;;;;5393689;26;20014;-59
2024/04/20 01:13:06;;;;;;;3.83;2.30;;;6.40;99.90;;;;;;5393984;26;20014;-59
2024/04/20 01:15:32;;;;;;;7.53;2.55;;;6.40;99.90;;;;;;5393994;26;19999;-59
2024/04/20 01:17:58;;;;;;;4.57;2.20;;;6.30;99.90;;;;;;5392974;26;20011;-59
2024/04/20 01:20:24;;;;;;;3.42;1.90;;;6.40;99.90;;;;;;5394755;26;20018;-58
2024/04/20 01:22:49;;;;;;;3.67;1.98;;;6.30;99.90;;;;;;5388735;26;20014;-68
2024/04/20 01:25:15;;;;;;;4.57;2.40;;;6.30;99.90;;;;;;5392129;26;20001;-69
2024/04/20 01:27:41;;;;;;;2.17;1.88;;;6.30;99.90;;;;;;5396178;26;20008;-69
2024/04/20 01:30:08;;;;;;;4.15;2.40;;;6.30;99.90;;;;;;5395017;26;20003;-69
2024/04/20 01:32:36;;;;;;;3.60;2.90;;;6.30;99.90;;;;;;5396854;26;19999;-68
2024/04/20 01:35:02;;;;;;;3.30;2.50;;;6.30;99.90;;;;;;5396174;26;19999;-70
2024/04/20 01:37:27;;;;;;;3.33;2.30;;;6.30;99.90;;;;;;5395028;26;20062;-68
2024/04/20 01:39:53;;;;;;;3.70;2.67;;;6.30;99.90;;;;;;5390179;26;19996;-68
2024/04/20 01:42:19;;;;;;;3.47;2.55;;;6.30;99.90;;;;;;5396507;26;20011;-68
2024/04/20 01:44:45;;;;;;;3.28;2.50;;;6.30;99.90;;;;;;5395656;26;20003;-67
2024/04/20 01:47:10;;;;;;;3.97;3.10;;;6.20;99.90;;;;;;5396553;26;20047;-68
2024/04/20 01:49:36;;;;;;;2.78;2.45;;;6.20;99.90;;;;;;5396398;26;20004;-68
2024/04/20 01:52:02;;;;;;;3.85;2.90;;;6.20;99.90;;;;;;5399369;26;20047;-69
2024/04/20 01:54:27;;;;;;;4.00;2.97;;;6.20;99.90;;;;;;5392795;26;20665;-69
2024/04/20 01:56:53;;;;;;;4.60;3.47;;;6.20;99.90;;;;;;5396422;26;20047;-68
2024/04/20 01:59:18;;;;;;;4.05;3.42;;;6.20;99.90;;;;;;5398574;26;20003;-68
2024/04/20 02:01:46;;;;;;;3.90;3.50;;;6.20;99.90;;;;;;5395867;26;20010;-68
2024/04/20 02:04:11;;;;;;;3.53;2.88;;;6.20;99.90;;;;;;5395898;26;20092;-68
2024/04/20 02:06:37;;;;;;;4.43;3.08;;;6.20;99.90;;;;;;5395221;26;20007;-68
2024/04/20 02:09:02;;;;;;;5.85;3.00;;;6.20;99.90;;;;;;5395936;26;19999;-67
2024/04/20 02:11:28;;;;;;;4.22;3.15;;;6.20;99.90;;;;;;5398459;26;20340;-69
2024/04/20 02:13:53;;;;;;;4.25;3.60;;;6.20;99.90;;;;;;5395584;26;20093;-68
2024/04/20 02:16:19;;;;;;;4.63;3.60;;;6.20;99.90;;;;;;5395463;26;20134;-69
2024/04/20 02:18:44;;;;;;;4.70;3.50;;;6.20;99.90;;;;;;5395425;26;20068;-67
2024/04/20 02:21:11;;;;;;;4.82;4.28;;;6.20;99.90;;;;;;5395777;26;20441;-68
2024/04/20 02:23:41;;;;;;;4.57;3.83;;;6.20;99.90;;;;;;5398038;26;20092;-70
2024/04/20 02:26:07;;;;;;;6.90;3.90;;;6.20;99.90;;;;;;5391036;26;20003;-68
2024/04/20 02:28:32;;;;;;;7.32;4.30;;;6.20;99.90;;;;;;5391239;26;20357;-68
2024/04/20 02:30:58;;;;;;;5.13;3.60;;;6.20;99.90;;;;;;5395296;26;20004;-68
2024/04/20 02:33:26;;;;;;;4.25;3.85;;;6.20;99.90;;;;;;5394585;26;19996;-68
2024/04/20 02:35:52;;;;;;;6.22;3.95;;;6.20;99.90;;;;;;5395481;26;20000;-68
2024/04/20 02:38:17;;;;;;;3.50;2.80;;;6.20;99.90;;;;;;5394270;26;20015;-68
2024/04/20 02:40:43;;;;;;;6.25;3.67;;;6.10;99.90;;;;;;5390091;26;19999;-67
2024/04/20 02:43:08;;;;;;;3.92;3.35;;;6.10;99.90;;;;;;5398150;26;20058;-69
2024/04/20 02:45:34;;;;;;;3.28;2.92;;;6.00;99.90;;;;;;5395736;26;19999;-68
2024/04/20 02:47:59;;;;;;;3.92;2.53;;;6.00;99.90;;;;;;5395506;26;20409;-68
2024/04/20 02:50:25;;;;;;;2.75;2.15;;;5.90;99.90;;;;;;5395402;26;20015;-68
2024/04/20 02:52:51;;;;;;;3.10;2.30;;;5.90;99.90;;;;;;5395096;26;20007;-68
2024/04/20 02:55:16;;;;;;;1.95;1.75;;;5.90;99.90;;;;;;5394974;26;20429;-68
2024/04/20 02:57:43;;;;;;;4.32;1.90;;;5.80;99.90;;;;;;5398378;26;19999;-68
2024/04/20 03:00:09;;;;;;;2.15;1.40;;;5.80;99.90;;;;;;5397914;26;20011;-69
2024/04/20 03:02:36;;;;;;;1.80;1.50;;;5.80;99.90;;;;;;5394074;26;19995;-68
2024/04/20 03:05:02;;;;;;;1.40;1.30;;;5.70;99.90;;;;;;5395080;26;20003;-69
2024/04/20 03:07:27;;;;;;;3.60;1.60;;;5.70;99.90;;;;;;5395198;26;20506;-69
2024/04/20 03:09:53;;;;;;;1.35;1.20;;;5.60;99.90;;;;;;5395242;26;20391;-68
2024/04/20 03:12:19;;;;;;;1.63;1.13;;;5.60;99.90;;;;;;5395167;26;20369;-68
2024/04/20 03:14:45;;;;;;;2.70;1.23;;;5.60;99.90;;;;;;5398227;26;20610;-68
2024/04/20 03:17:11;;;;;;;1.80;1.02;;;5.50;99.90;;;;;;5396189;26;20010;-68
2024/04/20 03:19:37;;;;;;;1.05;0.90;;;5.50;99.90;;;;;;5397620;26;20735;-69
2024/04/20 03:22:03;;;;;;;1.25;1.02;;;5.50;99.90;;;;;;5396649;26;20015;-68
2024/04/20 03:24:28;;;;;;;0.68;0.68;;;5.50;99.90;;;;;;5398561;26;20014;-68
2024/04/20 03:26:54;;;;;;;2.38;1.02;;;5.40;99.90;;;;;;5397955;26;20043;-68
2024/04/20 03:29:19;;;;;;;1.08;0.90;;;5.40;99.90;;;;;;5398447;26;20018;-68
2024/04/20 03:31:44;;;;;;;0.80;0.80;;;5.30;99.90;;;;;;5401212;26;20015;-64
2024/04/20 03:34:10;;;;;;;1.85;1.40;;;5.30;99.90;;;;;;5397567;26;20524;-69
2024/04/20 03:36:36;;;;;;;4.18;1.80;;;5.30;99.90;;;;;;5397060;26;20031;-69
2024/04/20 03:39:11;;;;;;;1.63;1.50;;;5.20;99.90;;;;;;5394074;26;20019;-69
2024/04/20 03:41:37;;;;;;;2.90;2.28;;;5.20;99.90;;;;;;5398720;26;19999;-69
2024/04/20 03:44:03;;;;;;;4.40;2.60;;;5.20;99.90;;;;;;5398566;26;20014;-68
2024/04/20 03:46:29;;;;;;;4.22;2.13;;;5.10;99.90;;;;;;5398393;26;20012;-68
2024/04/20 03:48:55;;;;;;;3.00;2.00;;;5.10;99.90;;;;;;5398394;26;20050;-69
2024/04/20 03:51:21;;;;;;;2.90;2.20;;;5.10;99.90;;;;;;5400000;26;20011;-69
2024/04/20 03:53:46;;;;;;;3.88;1.95;;;5.10;99.90;;;;;;5397678;26;19996;-68
2024/04/20 03:56:12;;;;;;;2.67;1.90;;;5.10;99.90;;;;;;5397532;26;20010;-69
2024/04/20 03:58:38;;;;;;;2.55;1.73;;;5.10;99.90;;;;;;5396711;26;19999;-69
2024/04/20 04:01:04;;;;;;;3.28;1.52;;;5.00;99.90;;;;;;5396666;26;20000;-69
2024/04/20 04:03:29;;;;;;;1.70;1.33;;;5.00;99.90;;;;;;5397003;26;20007;-68
2024/04/20 04:05:55;;;;;;;1.90;1.58;;;4.90;99.90;;;;;;5400770;26;20015;-69
2024/04/20 04:08:24;;;;;;;2.05;1.50;;;4.90;99.90;;;;;;5396681;26;20000;-69
2024/04/20 04:10:49;;;;;;;4.22;2.78;;;4.90;99.90;;;;;;5398226;26;19999;-68
2024/04/20 04:13:16;;;;;;;3.97;2.75;;;4.90;99.90;;;;;;5398085;26;20637;-69
2024/04/20 04:15:42;;;;;;;4.20;2.35;;;4.80;99.90;;;;;;5396693;26;20018;-69
2024/04/20 04:18:09;;;;;;;3.20;2.22;;;4.90;99.90;;;;;;5388427;26;19999;-69
2024/04/20 04:20:35;;;;;;;5.07;2.70;;;4.80;99.90;;;;;;5394363;26;20017;-69
2024/04/20 04:23:02;;;;;;;3.85;1.80;;;4.70;99.90;;;;;;5394549;26;20003;-69
2024/04/20 04:25:31;;;;;;;2.95;1.90;;;4.70;99.90;;;;;;5390749;26;20226;-69
2024/04/20 04:27:57;;;;;;;2.90;2.10;;;4.70;99.90;;;;;;5384870;26;20012;-69
2024/04/20 04:30:23;;;;;;;3.15;2.33;;;4.60;99.90;;;;;;5389444;26;20097;-69
2024/04/20 04:32:48;;;;;;;4.53;2.65;;;4.60;99.90;;;;;;5395096;26;20004;-69
2024/04/20 04:35:14;;;;;;;5.68;2.97;;;4.60;99.90;;;;;;5396027;26;20017;-69
2024/04/20 04:37:40;;;;;;;5.18;3.70;;;4.50;99.90;;;;;;5397788;26;20003;-70
2024/04/20 04:40:06;;;;;;;5.97;3.42;;;4.50;99.90;;;;;;5389017;26;20013;-70
2024/04/20 04:42:32;;;;;;;7.63;3.78;;;4.50;99.90;;;;;;5401633;26;20851;-70
2024/04/20 04:44:58;;;;;;;6.15;3.72;;;4.50;99.90;;;;;;5399235;26;20694;-69
2024/04/20 04:47:24;;;;;;;5.75;3.65;;;4.50;99.90;;;;;;5398084;26;20014;-69
2024/04/20 04:49:50;;;;;;;5.90;4.10;;;4.50;99.90;;;;;;5397896;26;20003;-68
2024/04/20 04:52:16;;;;;;;5.88;4.07;;;4.50;99.90;;;;;;5398017;26;20225;-69
2024/04/20 04:54:42;;;;;;;7.18;3.65;;;4.50;99.90;;;;;;5396348;26;20034;-68
2024/04/20 04:57:08;;;;;;;4.90;2.95;;;4.50;99.90;;;;;;5397869;26;20451;-67
2024/04/20 04:59:34;;;;;;;4.45;3.00;;;4.40;99.90;;;;;;5400986;26;19999;-69
2024/04/20 05:02:00;;;;;;;4.30;2.67;;;4.40;99.90;;;;;;5397851;26;20395;-69
2024/04/20 05:04:26;;;;;;;4.30;2.75;;;4.40;99.90;;;;;;5398590;26;20011;-69
2024/04/20 05:06:52;;;;;;;4.68;2.88;;;4.40;99.90;;;;;;5386826;26;20010;-68
2024/04/20 05:09:17;;;;;;;5.07;3.40;;;4.30;99.90;;;;;;5387326;26;20656;-68
2024/04/20 05:11:43;;;;;;;9.65;3.78;;;4.30;99.90;;;;;;5394216;26;20010;-67
2024/04/20 05:14:08;;;;;;;5.93;3.53;;;4.40;99.90;;;;;;5387922;26;20045;-69
2024/04/20 05:16:34;;;;;;;7.13;3.38;;;4.40;99.90;;;;;;5394359;26;20000;-68
2024/04/20 05:18:59;;;;;;;5.28;3.80;;;4.40;99.90;;;;;;5394386;26;20011;-68
2024/04/20 05:21:25;;;;;;;5.18;3.10;;;4.50;99.90;;;;;;5394844;26;20705;-69
2024/04/20 05:23:50;;;;;;;4.70;2.90;;;4.40;99.90;;;;;;5386066;26;20080;-67
2024/04/20 05:26:16;;;;;;;5.35;2.72;;;4.50;99.90;;;;;;5390595;26;20000;-68
2024/04/20 05:28:42;;;;;;;3.78;2.60;;;4.50;99.90;;;;;;5385546;26;20003;-69
2024/04/20 05:31:08;;;;;;;4.53;2.47;;;4.50;99.90;;;;;;5394443;26;20018;-70
2024/04/20 05:33:33;;;;;;;4.45;2.90;;;4.50;99.90;;;;;;5393648;26;20003;-68
2024/04/20 05:36:05;;;;;;;3.72;2.33;;;4.50;99.90;;;;;;5393761;26;20009;-68
2024/04/20 05:38:31;;;;;;;2.85;2.08;;;4.50;99.90;;;;;;5395167;26;19999;-68
2024/04/20 05:40:56;;;;;;;2.60;1.73;;;4.50;99.90;;;;;;5387911;26;20033;-68
2024/04/20 05:43:22;;;;;;;3.78;1.88;;;4.40;99.90;;;;;;5397340;26;20007;-68
2024/04/20 05:45:47;;;;;;;2.30;1.80;;;4.40;99.90;;;;;;5390120;26;19999;-69
2024/04/20 05:48:13;;;;;;;2.53;1.90;;;4.40;99.90;;;;;;5394238;26;19999;-68
2024/04/20 05:50:41;;;;;;;5.07;1.90;;;4.40;99.90;;;;;;5391758;26;20073;-69
2024/04/20 05:53:06;;;;;;;1.65;1.30;;;4.40;99.90;;;;;;5393624;26;20003;-68
2024/04/20 05:55:33;;;;;;;4.68;1.85;;;4.40;99.90;;;;;;5393924;26;20003;-69
2024/04/20 05:57:59;;;;;;;3.33;1.40;;;4.40;99.90;;;;;;5389105;26;19999;-70
2024/04/20 06:00:24;;;;;;;2.88;2.00;;;4.40;99.90;;;;;;5397012;26;20447;-68
2024/04/20 06:02:50;;;;;;;2.08;1.35;;;4.50;99.90;;;;;;5394414;26;19999;-68
2024/04/20 06:05:15;;;;;;;3.05;1.40;;;4.60;99.90;;;;;;5393425;26;20015;-71
2024/04/20 06:07:41;;;;;;;2.72;1.52;;;4.90;99.90;;;;;;5379031;26;20082;-68
2024/04/20 06:10:06;;;;;;;1.75;1.27;;;5.00;99.90;;;;;;5385142;26;20000;-69
2024/04/20 06:12:32;;;;;;;1.55;0.93;;;5.30;99.90;;;;;;5386158;26;19995;-69
2024/04/20 06:14:58;;;;;;;4.45;2.00;;;5.40;99.90;;;;;;5394021;26;19996;-68
2024/04/20 06:17:23;;;;;;;2.03;1.58;;;5.50;99.90;;;;;;5389601;26;20007;-69
2024/04/20 06:19:49;;;;;;;2.05;1.45;;;5.60;99.90;;;;;;5394168;26;20031;-68
2024/04/20 06:22:14;;;;;;;1.63;1.50;;;5.50;99.90;;;;;;5393224;26;20014;-69
2024/04/20 06:24:40;;;;;;;2.08;1.50;;;5.50;99.90;;;;;;5394111;26;20040;-68
2024/04/20 06:27:06;;;;;;;2.47;1.30;;;5.40;99.90;;;;;;5393532;26;20014;-69
2024/04/20 06:29:32;;;;;;;2.78;1.80;;;5.30;99.20;;;;;;5388697;26;19991;-69
2024/04/20 06:31:57;;;;;;;1.80;1.42;;;5.30;98.80;;;;;;5389901;26;20380;-69
2024/04/20 06:34:24;;;;;;;1.33;1.10;;;5.20;98.20;;;;;;5393786;26;20007;-68
2024/04/20 06:36:49;;;;;;;3.22;1.90;;;5.20;98.80;;;;;;5393400;26;20007;-69
2024/04/20 06:39:15;;;;;;;3.92;1.40;;;5.40;99.10;;;;;;5384673;26;20007;-69
2024/04/20 06:41:40;;;;;;;2.50;1.42;;;5.40;97.90;;;;;;5393261;26;20413;-68
2024/04/20 06:44:06;;;;;;;3.17;1.35;;;5.60;97.30;;;;;;5396057;26;20409;-70
2024/04/20 06:46:32;;;;;;;5.93;1.40;;;5.60;97.10;;;;;;5393377;26;20014;-69
2024/04/20 06:48:57;;;;;;;1.45;1.35;;;5.50;96.90;;;;;;5393238;26;20395;-69
2024/04/20 06:51:23;;;;;;;3.80;1.90;;;5.50;96.70;;;;;;5390474;26;19997;-69
2024/04/20 06:53:48;;;;;;;5.10;3.45;;;5.40;97.10;;;;;;5392967;26;20010;-69
2024/04/20 06:56:16;;;;;;;3.88;2.75;;;5.20;95.90;;;;;;5392824;26;19996;-68
2024/04/20 06:58:42;;;;;;;6.43;3.28;;;5.20;97.20;;;;;;5396261;26;19999;-69
2024/04/20 07:01:09;;;;;;;3.33;2.75;;;5.10;98.00;;;;;;5388901;26;20007;-69
2024/04/20 07:03:35;;;;;;;4.20;2.65;;;5.10;98.10;;;;;;5391257;26;20016;-69
2024/04/20 07:06:01;;;;;;;5.80;3.17;;;5.30;98.30;;;;;;5390125;26;20015;-69
2024/04/20 07:08:28;;;;;;;4.45;2.92;;;5.40;97.70;;;;;;5380417;26;20101;-69
2024/04/20 07:11:01;;;;;;;5.53;3.30;;;5.60;97.60;;;;;;5384783;26;20475;-71
2024/04/20 07:13:46;;;;;;;4.05;3.35;;;6.00;97.60;;;;;;5387131;26;20032;-69
2024/04/20 07:16:12;;;;;;;3.20;2.58;;;6.30;96.10;;;;;;5384505;26;20026;-70
2024/04/20 07:18:37;;;;;;;4.53;3.25;;;6.50;96.60;;;;;;5389572;26;20452;-75
2024/04/20 07:21:05;;;;;;;4.82;3.15;;;6.50;96.00;;;;;;5392276;26;20076;-70
2024/04/20 07:23:30;;;;;;;4.57;3.47;;;6.40;95.40;;;;;;5392864;26;20351;-67
2024/04/20 07:26:00;;;;;;;5.70;3.28;;;6.20;94.10;;;;;;5375005;26;20012;-56
2024/04/20 07:28:26;;;;;;;5.22;3.70;;;6.10;95.60;;;;;;5381960;26;20004;-56
2024/04/20 07:30:52;;;;;;;7.07;4.68;;;5.90;95.30;;;;;;5383435;26;20463;-58
2024/04/20 07:33:17;;;;;;;10.13;5.45;;;6.00;95.90;;;;;;5387566;26;20014;-58
2024/04/20 07:35:43;;;;;;;5.85;4.05;;;6.20;95.90;;;;;;5388192;26;20007;-58
2024/04/20 07:38:09;;;;;;;9.35;4.93;;;6.40;93.90;;;;;;5385437;26;20037;-58
2024/04/20 07:40:35;;;;;;;6.65;3.97;;;6.60;93.20;;;;;;5375050;26;20019;-57
2024/04/20 07:43:01;;;;;;;8.85;4.85;;;6.80;93.30;;;;;;5382430;26;20055;-58
2024/04/20 07:45:26;;;;;;;6.68;3.92;;;6.50;90.70;;;;;;5390012;26;20466;-57
2024/04/20 07:47:52;;;;;;;5.13;2.92;;;6.30;90.90;;;;;;5390432;26;20015;-58
2024/04/20 07:50:17;;;;;;;6.28;3.40;;;6.20;91.80;;;;;;5389705;26;19995;-58
2024/04/20 07:52:43;;;;;;;5.22;3.45;;;6.20;91.70;;;;;;5380080;26;20046;-55
2024/04/20 07:55:08;;;;;;;4.18;3.25;;;6.20;92.10;;;;;;5382625;26;20010;-59
2024/04/20 07:57:34;;;;;;;7.32;3.40;;;6.30;92.40;;;;;;5380932;26;20018;-58
2024/04/20 08:00:00;;;;;;;3.80;3.13;;;6.40;92.50;;;;;;5386539;26;20004;-57
2024/04/20 08:02:26;;;;;;;5.90;3.63;;;6.60;92.30;;;;;;5385646;26;20323;-58
2024/04/20 08:04:52;;;;;;;4.60;3.33;;;6.70;90.70;;;;;;5380565;26;20713;-57
2024/04/20 08:07:17;;;;;;;6.13;3.63;;;6.80;91.10;;;;;;5384292;26;19992;-58
2024/04/20 08:09:43;;;;;;;6.30;3.35;;;7.00;90.10;;;;;;5384335;26;20015;-58
2024/04/20 08:12:09;;;;;;;4.75;3.20;;;7.10;87.20;;;;;;5389382;26;20006;-59
2024/04/20 08:14:35;;;;;;;3.95;3.30;;;7.60;88.20;;;;;;5387289;26;19997;-60
2024/04/20 08:17:01;;;;;;;4.78;3.90;;;7.40;84.10;;;;;;5391892;26;20002;-59
2024/04/20 08:19:26;;;;;;;4.45;3.00;;;7.30;83.00;;;;;;5388812;26;19996;-58
2024/04/20 08:21:52;;;;;;;4.18;3.25;;;7.40;81.40;;;;;;5387045;26;20784;-59
2024/04/20 08:24:18;;;;;;;6.82;4.07;;;8.00;78.00;;;;;;5382920;26;20004;-59
2024/04/20 08:26:44;;;;;;;6.20;3.95;;;9.00;75.00;;;;;;5389707;26;19996;-59
2024/04/20 08:29:09;;;;;;;6.75;3.92;;;9.10;72.10;;;;;;5397439;26;20003;-60
2024/04/20 08:31:35;;;;;;;6.28;3.50;;;8.70;73.10;;;;;;5395026;26;20004;-59
2024/04/20 08:34:00;;;;;;;6.00;3.95;;;8.70;74.00;;;;;;5398335;26;20444;-58
2024/04/20 08:36:26;;;;;;;7.95;4.43;;;8.60;70.60;;;;;;5398994;26;20020;-59
2024/04/20 08:38:51;;;;;;;5.05;3.67;;;8.80;69.50;;;;;;5397187;26;20097;-59
2024/04/20 08:41:20;;;;;;;5.05;3.70;;;9.30;65.80;;;;;;5391859;26;20011;-59
2024/04/20 08:43:48;;;;;;;4.90;3.85;;;9.40;69.50;;;;;;5398044;26;20393;-58
2024/04/20 08:46:15;;;;;;;6.78;4.38;;;9.20;68.90;;;;;;5397656;26;20023;-59
2024/04/20 08:48:45;;;;;;;5.25;3.70;;;8.90;70.60;;;;;;5395218;26;20089;-59
2024/04/20 08:51:12;;;;;;;5.30;3.88;;;8.70;70.00;;;;;;5393315;26;19999;-58
2024/04/20 08:53:41;;;;;;;5.90;4.05;;;8.50;72.30;;;;;;5397669;26;20344;-59
2024/04/20 08:56:07;;;;;;;4.50;2.88;;;8.20;69.70;;;;;;5396189;26;20024;-59
2024/04/20 08:58:34;;;;;;;4.10;2.80;;;7.80;73.30;;;;;;5397339;26;20017;-58
2024/04/20 09:01:01;;;;;;;6.15;2.50;;;7.60;75.80;;;;;;5395847;26;20023;-59
2024/04/20 09:03:28;;;;;;;2.95;1.90;;;7.30;77.60;;;;;;5400445;26;20392;-59
2024/04/20 09:05:53;;;;;;;5.32;1.73;;;7.20;80.20;;;;;;5383743;26;20007;-59
2024/04/20 09:08:21;;;;;;;2.72;1.63;;;7.00;81.50;;;;;;5397261;26;20040;-59
2024/04/20 09:10:46;;;;;;;2.85;1.58;;;6.80;81.90;;;;;;5396899;26;20015;-57
2024/04/20 09:13:15;;;;;;;1.80;1.70;;;6.70;83.90;;;;;;5396801;26;20003;-59
2024/04/20 09:15:44;;;;;;;2.08;1.80;;;6.60;84.70;;;;;;5395897;26;20475;-59
2024/04/20 09:18:09;;;;;;;2.38;1.70;;;6.60;84.70;;;;;;5396749;26;20074;-59
2024/04/20 09:20:36;;;;;;;1.90;1.38;;;6.80;85.20;;;;;;5397230;26;20003;-58
2024/04/20 09:23:05;;;;;;;2.90;1.80;;;7.00;84.20;;;;;;5399743;26;20440;-59
2024/04/20 09:25:31;;;;;;;1.45;1.35;;;7.10;83.30;;;;;;5392553;26;19999;-58
2024/04/20 09:27:57;;;;;;;1.08;0.95;;;7.40;84.20;;;;;;5396740;26;20094;-59
2024/04/20 09:30:22;;;;;;;1.67;1.23;;;7.70;84.80;;;;;;5396721;26;20730;-59
2024/04/20 09:32:48;;;;;;;1.48;1.27;;;8.80;83.50;;;;;;5396423;26;20010;-59
2024/04/20 09:35:14;;;;;;;1.80;1.50;;;10.50;78.70;;;;;;5396446;26;20003;-58
2024/04/20 09:37:40;;;;;;;3.45;1.75;;;11.30;72.60;;;;;;5395025;26;20444;-59
2024/04/20 09:40:07;;;;;;;2.75;1.55;;;11.20;68.00;;;;;;5392579;26;19999;-59
2024/04/20 09:42:33;;;;;;;1.42;1.20;;;10.60;66.70;;;;;;5397502;26;19999;-59
2024/04/20 09:45:00;;;;;;;1.65;1.00;;;9.50;66.00;;;;;;5395240;26;20022;-59
2024/04/20 09:47:29;;;;;;;7.15;1.20;;;8.80;70.10;;;;;;5396659;26;20073;-59
2024/04/20 09:49:56;;;;;;;1.50;1.20;;;8.20;72.10;;;;;;5393904;26;20011;-59
2024/04/20 09:52:36;;;;;;;1.02;0.77;;;7.90;73.80;;;;;;5389329;26;19999;-59
2024/04/20 09:55:16;;;;;;;1.55;1.00;;;7.80;74.40;;;;;;5396440;26;20004;-59
2024/04/20 09:57:43;;;;;;;2.33;1.20;;;7.90;76.70;;;;;;5391341;26;20057;-59
2024/04/20 10:00:11;;;;;;;1.70;1.10;;;7.90;76.20;;;;;;5398188;26;20991;-58
2024/04/20 10:02:38;;;;;;;1.23;1.05;;;7.90;76.70;;;;;;5395732;26;20072;-59
2024/04/20 10:05:04;;;;;;;2.22;1.00;;;8.30;77.50;;;;;;5396446;26;20405;-59
2024/04/20 10:07:30;;;;;;;1.63;1.17;;;9.00;79.00;;;;;;5390092;26;20000;-60
2024/04/20 10:09:59;;;;;;;2.00;1.50;;;9.70;79.60;;;;;;5390151;26;20031;-58
2024/04/20 10:12:25;;;;;;;2.80;1.30;;;10.20;76.90;;;;;;5393951;26;19999;-58
2024/04/20 10:14:51;;;;;;;2.17;1.10;;;10.20;72.90;;;;;;5384594;26;19996;-59
2024/04/20 10:17:17;;;;;;;2.92;1.40;;;9.90;71.80;;;;;;5391728;26;20000;-58
2024/04/20 10:19:43;;;;;;;2.35;1.52;;;9.80;73.70;;;;;;5396575;26;20010;-58
2024/04/20 10:22:12;;;;;;;5.47;2.35;;;9.70;73.00;;;;;;5393250;26;19999;-59
2024/04/20 10:24:49;;;;;;;6.35;3.20;;;9.60;71.20;;;;;;5391038;26;20639;-58
2024/04/20 10:27:25;;;;;;;4.82;2.58;;;9.40;71.30;;;;;;5388875;26;19995;-58
2024/04/20 10:29:51;;;;;;;2.88;1.90;;;9.10;69.70;;;;;;5387789;26;20015;-58
2024/04/20 10:32:22;;;;;;;2.42;1.65;;;9.10;70.90;;;;;;5396518;26;20383;-59
2024/04/20 10:34:48;;;;;;;5.85;2.40;;;9.20;69.50;;;;;;5387576;26;19995;-58
2024/04/20 10:37:23;;;;;;;1.90;1.67;;;9.30;67.20;;;;;;5396349;26;20004;-59
2024/04/20 10:39:48;;;;;;;1.53;1.03;;;9.80;67.40;;;;;;5387690;26;20003;-59
2024/04/20 10:42:14;;;;;;;5.75;1.95;;;9.90;67.50;;;;;;5392856;26;20549;-59
2024/04/20 10:44:39;;;;;;;3.03;1.52;;;10.00;65.30;;;;;;5389570;26;20004;-58
2024/04/20 10:47:06;;;;;;;4.18;1.92;;;10.00;63.50;;;;;;5382148;26;20023;-58
2024/04/20 10:49:31;;;;;;;2.00;1.55;;;10.20;64.40;;;;;;5392006;26;20000;-59
2024/04/20 10:51:57;;;;;;;4.30;2.65;;;10.20;63.80;;;;;;5391612;26;20028;-59
2024/04/20 10:54:24;;;;;;;3.33;2.30;;;9.80;60.40;;;;;;5393148;26;20339;-59
2024/04/20 10:56:54;;;;;;;2.70;1.60;;;9.60;62.20;;;;;;5392541;26;20393;-58
2024/04/20 10:59:20;;;;;;;4.07;1.48;;;9.50;62.20;;;;;;5392887;26;20015;-59
2024/04/20 11:01:46;;;;;;;1.48;1.10;;;9.60;62.70;;;;;;5389511;26;20000;-58
2024/04/20 11:04:12;;;;;;;2.50;1.20;;;9.80;62.70;;;;;;5383435;26;20010;-59
2024/04/20 11:06:38;;;;;;;4.45;1.25;;;10.00;61.80;;;;;;5390907;26;19996;-58
2024/04/20 11:09:09;;;;;;;2.13;1.13;;;9.80;61.30;;;;;;5389281;26;19991;-58
2024/04/20 11:14:06;;;;;;;2.97;1.55;;;9.90;61.50;;;;;;5359806;26;19930;-67
2024/04/20 11:16:32;;;;;;;3.55;1.40;;;9.80;60.50;;;;;;5335569;26;20015;-67
2024/04/20 11:19:01;;;;;;;4.32;1.48;;;9.90;60.70;;;;;;5335430;26;20016;-66
2024/04/20 11:21:26;;;;;;;1.80;0.90;;;9.80;60.00;;;;;;5331404;26;20001;-53
2024/04/20 11:23:52;;;;;;;3.67;1.30;;;9.80;60.50;;;;;;5335222;26;20008;-56
2024/04/20 11:26:18;;;;;;;3.10;1.63;;;10.00;61.10;;;;;;5332205;26;20012;-54
2024/04/20 11:28:43;;;;;;;1.77;1.20;;;9.80;59.80;;;;;;5335212;26;20441;-53
2024/04/20 11:31:12;;;;;;;2.70;1.33;;;9.50;59.40;;;;;;5334827;26;19996;-61
2024/04/20 11:33:46;;;;;;;1.58;1.30;;;9.30;59.30;;;;;;5335235;26;20440;-61
2024/04/20 11:36:16;;;;;;;1.15;1.05;;;8.90;59.20;;;;;;5334676;26;20001;-61
2024/04/20 11:38:41;;;;;;;2.88;1.48;;;8.80;61.40;;;;;;5336215;26;20001;-62
2024/04/20 11:41:07;;;;;;;1.83;1.38;;;8.70;60.60;;;;;;5335508;26;21012;-60
2024/04/20 11:43:34;;;;;;;2.25;1.40;;;8.70;60.10;;;;;;5325253;26;20012;-62
2024/04/20 11:46:01;;;;;;;2.10;1.30;;;8.70;59.00;;;;;;5325056;26;20348;-61
2024/04/20 11:48:29;;;;;;;1.27;1.17;;;8.70;59.20;;;;;;5328059;26;20487;-61
2024/04/20 11:51:02;;;;;;;2.08;1.10;;;8.80;55.70;;;;;;5321410;26;20001;-61
2024/04/20 11:56:19;;;;;;;2.20;1.40;;;9.40;54.30;;;;;;5324462;26;20012;-61
2024/04/20 11:58:52;;;;;;;2.92;1.25;;;9.50;54.10;;;;;;5324765;26;20344;-61
2024/04/20 12:01:18;;;;;;;1.55;1.45;;;9.60;54.10;;;;;;5304183;26;20011;-62
2024/04/20 12:03:45;;;;;;;1.73;1.30;;;9.50;53.80;;;;;;5331381;26;20008;-63
2024/04/20 12:06:11;;;;;;;2.05;1.30;;;9.50;55.10;;;;;;5324762;26;20007;-62
2024/04/20 12:08:36;;;;;;;2.97;1.30;;;9.40;55.00;;;;;;5324932;26;20048;-63
2024/04/20 12:11:02;;;;;;;2.65;1.35;;;8.90;55.40;;;;;;5318485;26;20008;-63
2024/04/20 12:13:28;;;;;;;2.42;1.00;;;8.60;56.70;;;;;;5320967;26;20355;-63
2024/04/20 12:15:53;;;;;;;1.48;0.80;;;8.40;56.30;;;;;;5324419;26;20349;-63
2024/04/20 12:18:20;;;;;;;3.40;1.00;;;8.40;57.20;;;;;;5324952;26;19993;-63
2024/04/20 12:20:46;;;;;;;2.20;0.98;;;8.20;56.40;;;;;;5313166;26;20038;-61
2024/04/20 12:23:11;;;;;;;1.75;1.00;;;8.00;58.10;;;;;;5324538;26;19997;-61
2024/04/20 12:25:37;;;;;;;3.33;1.30;;;7.90;59.50;;;;;;5326099;26;20007;-61
2024/04/20 12:28:03;;;;;;;3.03;1.27;;;7.80;60.30;;;;;;5320936;26;19996;-61
2024/04/20 12:30:28;;;;;;;2.03;1.10;;;7.70;60.40;;;;;;5317945;26;20694;-62
2024/04/20 12:32:54;;;;;;;2.72;1.58;;;7.70;61.00;;;;;;5321064;26;20012;-62
2024/04/20 12:35:19;;;;;;;1.98;1.38;;;7.70;61.50;;;;;;5322190;26;20472;-62
2024/04/20 12:37:45;;;;;;;2.25;1.50;;;7.90;62.00;;;;;;5324585;26;20001;-62
2024/04/20 12:40:11;;;;;;;4.93;1.90;;;8.20;62.40;;;;;;5320555;26;20009;-61
2024/04/20 12:42:36;;;;;;;2.03;1.60;;;8.50;62.40;;;;;;5326402;26;20360;-61
2024/04/20 12:45:02;;;;;;;3.90;1.77;;;8.60;59.70;;;;;;5323274;26;20040;-61
2024/04/20 12:47:27;;;;;;;4.82;1.23;;;8.80;60.00;;;;;;5322517;26;20009;-61
2024/04/20 12:49:53;;;;;;;4.05;1.45;;;8.70;57.40;;;;;;5323990;26;20017;-62
2024/04/20 12:52:19;;;;;;;1.63;1.00;;;8.70;55.00;;;;;;5324257;26;20083;-61
2024/04/20 12:54:44;;;;;;;2.35;1.20;;;8.80;55.30;;;;;;5322600;26;20073;-61
2024/04/20 12:57:10;;;;;;;2.58;1.40;;;8.70;53.80;;;;;;5326581;26;20440;-61